createdAt,value
2023-02-20T00:02:03.637Z,6.63
2023-02-20T00:04:33.118Z,6.74
2023-02-20T00:07:02.444Z,6.81
2023-02-20T00:09:31.851Z,6.83
2023-02-20T00:12:02.573Z,6.81
2023-02-20T00:14:32.517Z,6.85
2023-02-20T00:17:01.960Z,6.93
2023-02-20T00:19:31.475Z,6.89
2023-02-20T00:22:00.969Z,6.84
2023-02-20T00:24:30.333Z,6.88
2023-02-20T00:26:59.756Z,6.92
2023-02-20T00:29:31.460Z,7.01
2023-02-20T00:32:03.189Z,7.01
2023-02-20T00:34:32.574Z,7.08
2023-02-20T00:37:01.842Z,7.10
2023-02-20T00:39:31.175Z,7.10
2023-02-20T00:42:00.546Z,7.12
2023-02-20T00:44:31.328Z,7.15
2023-02-20T00:47:00.682Z,7.12
2023-02-20T00:50:37.778Z,7.15
2023-02-20T00:53:07.206Z,7.13
2023-02-20T00:55:36.838Z,7.11
2023-02-20T00:58:06.336Z,7.11
2023-02-20T01:00:36.030Z,7.15
2023-02-20T01:03:05.716Z,7.13
2023-02-20T01:05:36.681Z,7.15
2023-02-20T01:08:06.476Z,7.28
2023-02-20T01:10:35.873Z,7.39
2023-02-20T01:13:05.617Z,7.32
2023-02-20T01:15:35.219Z,7.32
2023-02-20T01:18:05.970Z,7.26
2023-02-20T01:20:37.274Z,7.28
2023-02-20T01:23:07.642Z,7.26
2023-02-20T01:25:37.083Z,7.22
2023-02-20T01:28:06.889Z,7.16
2023-02-20T01:30:36.328Z,7.18
2023-02-20T01:33:06.127Z,7.18
2023-02-20T01:35:37.067Z,7.17
2023-02-20T01:38:06.980Z,7.13
2023-02-20T01:40:37.452Z,7.12
2023-02-20T01:43:07.138Z,7.08
2023-02-20T01:45:40.025Z,7.05
2023-02-20T01:48:13.852Z,7.01
2023-02-20T01:50:46.629Z,6.97
2023-02-20T01:53:18.039Z,6.98
2023-02-20T01:55:52.903Z,6.93
2023-02-20T01:58:25.501Z,6.94
2023-02-20T02:00:55.724Z,6.92
2023-02-20T02:03:29.433Z,6.87
2023-02-20T02:06:03.618Z,6.93
2023-02-20T02:08:34.726Z,6.87
2023-02-20T02:11:07.105Z,6.86
2023-02-20T02:13:39.961Z,6.82
2023-02-20T02:16:20.216Z,6.84
2023-02-20T02:18:58.674Z,6.82
2023-02-20T02:22:13.071Z,6.80
2023-02-20T02:25:24.867Z,6.75
2023-02-20T02:29:03.271Z,6.68
2023-02-20T02:32:40.485Z,6.78
2023-02-20T02:36:13.647Z,6.78
2023-02-20T02:38:52.553Z,6.78
2023-02-20T02:41:32.937Z,6.79
2023-02-20T02:44:12.904Z,6.82
2023-02-20T02:46:50.291Z,6.85
2023-02-20T02:49:28.267Z,6.85
2023-02-20T02:51:59.770Z,6.87
2023-02-20T02:54:31.597Z,6.87
2023-02-20T02:57:24.843Z,6.82
2023-02-20T03:00:01.029Z,6.79
2023-02-20T03:02:36.157Z,6.80
2023-02-20T03:05:08.951Z,6.85
2023-02-20T03:07:39.977Z,6.91
2023-02-20T03:10:20.906Z,6.94
2023-02-20T03:12:53.445Z,6.86
2023-02-20T03:15:33.955Z,6.83
2023-02-20T03:18:20.533Z,6.85
2023-02-20T03:20:55.686Z,6.87
2023-02-20T03:23:32.206Z,6.86
2023-02-20T03:26:08.083Z,6.87
2023-02-20T03:28:44.166Z,6.84
2023-02-20T03:31:19.081Z,6.76
2023-02-20T03:34:09.701Z,6.76
2023-02-20T03:37:01.082Z,6.74
2023-02-20T03:39:53.260Z,6.66
2023-02-20T03:42:44.572Z,6.63
2023-02-20T03:45:17.236Z,6.56
2023-02-20T03:47:53.161Z,6.52
2023-02-20T03:51:37.560Z,6.45
2023-02-20T03:54:07.400Z,6.46
2023-02-20T03:56:42.473Z,6.47
2023-02-20T03:59:17.497Z,6.44
2023-02-20T04:01:49.932Z,6.42
2023-02-20T04:04:25.076Z,6.46
2023-02-20T04:06:56.804Z,6.47
2023-02-20T04:09:32.471Z,6.49
2023-02-20T04:12:07.334Z,6.50
2023-02-20T04:14:39.053Z,6.46
2023-02-20T04:17:16.516Z,6.51
2023-02-20T04:19:45.932Z,6.53
2023-02-20T04:22:24.461Z,6.53
2023-02-20T04:24:59.704Z,6.50
2023-02-20T04:27:29.214Z,6.45
2023-02-20T04:29:58.712Z,6.41
2023-02-20T04:32:28.200Z,6.35
2023-02-20T04:34:57.691Z,6.36
2023-02-20T04:37:28.517Z,6.31
2023-02-20T04:39:57.914Z,6.24
2023-02-20T04:42:28.635Z,6.24
2023-02-20T04:44:57.945Z,6.22
2023-02-20T04:47:28.006Z,6.13
2023-02-20T04:49:57.584Z,6.07
2023-02-20T04:52:28.507Z,6.09
2023-02-20T04:54:58.247Z,6.08
2023-02-20T04:57:27.742Z,6.05
2023-02-20T04:59:57.203Z,6.07
2023-02-20T05:02:26.938Z,6.11
2023-02-20T05:04:56.464Z,6.17
2023-02-20T05:07:27.507Z,6.16
2023-02-20T05:09:57.059Z,6.14
2023-02-20T05:12:26.513Z,6.14
2023-02-20T05:14:55.889Z,6.19
2023-02-20T05:17:25.349Z,6.17
2023-02-20T05:19:54.847Z,6.15
2023-02-20T05:22:23.342Z,6.17
2023-02-20T05:24:54.641Z,6.20
2023-02-20T05:27:25.670Z,6.18
2023-02-20T05:29:57.164Z,6.21
2023-02-20T05:32:29.248Z,6.31
2023-02-20T05:34:59.731Z,6.37
2023-02-20T05:37:31.683Z,6.41
2023-02-20T05:40:05.989Z,6.38
2023-02-20T05:42:37.318Z,6.43
2023-02-20T05:45:09.292Z,6.43
2023-02-20T05:47:39.803Z,6.39
2023-02-20T05:50:10.141Z,6.37
2023-02-20T05:52:39.544Z,6.50
2023-02-20T05:55:11.365Z,6.71
2023-02-20T05:57:40.730Z,6.81
2023-02-20T06:00:12.190Z,6.95
2023-02-20T06:02:41.626Z,7.17
2023-02-20T06:05:11.348Z,7.26
2023-02-20T06:07:40.794Z,7.35
2023-02-20T06:10:11.986Z,7.44
2023-02-20T06:12:41.385Z,7.53
2023-02-20T06:15:11.656Z,7.61
2023-02-20T06:17:41.848Z,7.65
2023-02-20T06:20:12.746Z,7.68
2023-02-20T06:22:42.232Z,7.72
2023-02-20T06:25:14.205Z,7.80
2023-02-20T06:27:43.847Z,7.80
2023-02-20T06:30:15.028Z,7.87
2023-02-20T06:32:44.391Z,7.94
2023-02-20T06:35:13.720Z,7.97
2023-02-20T06:37:43.412Z,8.02
2023-02-20T06:40:15.101Z,8.08
2023-02-20T06:42:44.364Z,8.07
2023-02-20T06:45:15.390Z,8.02
2023-02-20T06:47:44.935Z,8.01
2023-02-20T06:51:38.233Z,8.05
2023-02-20T06:54:08.239Z,8.11
2023-02-20T06:56:38.640Z,8.10
2023-02-20T06:59:10.298Z,8.12
2023-02-20T07:01:42.381Z,8.15
2023-02-20T07:04:19.114Z,8.20
2023-02-20T07:06:50.473Z,8.24
2023-02-20T07:09:20.429Z,8.23
2023-02-20T07:11:50.711Z,8.25
2023-02-20T07:14:20.350Z,8.24
2023-02-20T07:16:49.913Z,8.27
2023-02-20T07:19:19.337Z,8.28
2023-02-20T07:21:50.940Z,8.32
2023-02-20T07:24:20.372Z,8.36
2023-02-20T07:26:50.581Z,8.39
2023-02-20T07:29:19.894Z,8.41
2023-02-20T07:31:49.587Z,8.43
2023-02-20T07:34:19.011Z,8.47
2023-02-20T07:36:49.850Z,8.60
2023-02-20T07:39:19.420Z,8.64
2023-02-20T07:41:51.989Z,8.63
2023-02-20T07:44:21.391Z,8.64
2023-02-20T07:46:50.941Z,8.78
2023-02-20T07:49:20.346Z,8.88
2023-02-20T07:51:51.290Z,8.92
2023-02-20T07:54:20.653Z,9.04
2023-02-20T07:56:50.149Z,9.24
2023-02-20T07:59:19.610Z,9.45
2023-02-20T08:01:49.145Z,9.63
2023-02-20T08:04:19.170Z,9.68
2023-02-20T08:06:50.050Z,9.88
2023-02-20T08:09:19.488Z,10.20
2023-02-20T08:11:48.907Z,10.21
2023-02-20T08:14:18.673Z,10.24
2023-02-20T08:16:48.034Z,10.29
2023-02-20T08:19:17.428Z,10.43
2023-02-20T08:21:46.887Z,10.59
2023-02-20T08:24:17.786Z,10.75
2023-02-20T08:26:47.679Z,10.93
2023-02-20T08:29:18.731Z,10.77
2023-02-20T08:31:49.975Z,10.90
2023-02-20T08:34:19.526Z,11.05
2023-02-20T08:36:49.026Z,11.39
2023-02-20T08:39:19.870Z,11.12
2023-02-20T08:41:50.188Z,11.15
2023-02-20T08:44:19.587Z,10.79
2023-02-20T08:46:49.846Z,10.59
2023-02-20T08:49:22.605Z,10.71
2023-02-20T08:51:58.433Z,10.90
2023-02-20T08:54:29.337Z,11.22
2023-02-20T08:57:00.196Z,11.15
2023-02-20T08:59:32.473Z,11.46
2023-02-20T09:02:01.845Z,11.55
2023-02-20T09:04:31.792Z,11.70
2023-02-20T09:07:01.207Z,11.64
2023-02-20T09:09:32.005Z,11.83
2023-02-20T09:12:01.513Z,11.78
2023-02-20T09:14:30.952Z,11.66
2023-02-20T09:17:00.347Z,11.53
2023-02-20T09:19:29.915Z,11.50
2023-02-20T09:21:59.629Z,11.42
2023-02-20T09:24:34.549Z,11.60
2023-02-20T09:27:05.180Z,11.69
2023-02-20T09:29:37.006Z,11.47
2023-02-20T09:32:06.985Z,11.47
2023-02-20T09:34:36.693Z,11.65
2023-02-20T09:37:06.351Z,11.61
2023-02-20T09:39:37.197Z,11.39
2023-02-20T09:42:20.849Z,11.64
2023-02-20T09:45:05.230Z,11.74
2023-02-20T09:47:52.338Z,11.70
2023-02-20T09:51:43.248Z,11.98
2023-02-20T09:54:18.967Z,12.00
2023-02-20T09:56:54.708Z,12.04
2023-02-20T09:59:29.698Z,11.99
2023-02-20T10:02:03.345Z,11.68
2023-02-20T10:04:40.965Z,11.51
2023-02-20T10:07:25.223Z,11.57
2023-02-20T10:09:56.223Z,11.44
2023-02-20T10:12:37.306Z,11.13
2023-02-20T10:15:21.392Z,11.08
2023-02-20T10:18:02.455Z,11.08
2023-02-20T10:20:43.018Z,11.02
2023-02-20T10:23:21.890Z,11.01
2023-02-20T10:25:56.754Z,11.06
2023-02-20T10:28:26.625Z,11.11
2023-02-20T10:31:03.280Z,11.14
2023-02-20T10:33:37.913Z,10.93
2023-02-20T10:36:19.219Z,10.73
2023-02-20T10:38:55.922Z,10.72
2023-02-20T10:41:34.089Z,10.78
2023-02-20T10:44:09.987Z,10.85
2023-02-20T10:46:50.574Z,10.75
2023-02-20T10:49:29.346Z,10.70
2023-02-20T10:52:02.362Z,10.73
2023-02-20T10:54:42.566Z,10.77
2023-02-20T10:57:20.451Z,10.71
2023-02-20T10:59:59.731Z,10.62
2023-02-20T11:02:36.025Z,10.69
2023-02-20T11:05:10.944Z,10.83
2023-02-20T11:07:40.509Z,10.92
2023-02-20T11:10:12.612Z,10.86
2023-02-20T11:12:48.043Z,10.85
2023-02-20T11:15:21.888Z,10.82
2023-02-20T11:17:54.796Z,10.81
2023-02-20T11:20:49.506Z,10.79
2023-02-20T11:23:41.716Z,10.85
2023-02-20T11:26:34.640Z,10.85
2023-02-20T11:29:16.356Z,10.80
2023-02-20T11:31:48.058Z,10.86
2023-02-20T11:34:22.348Z,10.86
2023-02-20T11:36:55.550Z,10.82
2023-02-20T11:39:30.338Z,10.82
2023-02-20T11:42:17.147Z,10.91
2023-02-20T11:44:48.750Z,10.99
2023-02-20T11:47:27.180Z,11.02
2023-02-20T11:50:19.880Z,10.96
2023-02-20T11:53:04.969Z,10.94
2023-02-20T11:55:35.400Z,10.78
2023-02-20T11:58:07.088Z,10.80
2023-02-20T12:00:49.497Z,10.87
2023-02-20T12:03:24.313Z,10.83
2023-02-20T12:05:54.934Z,10.70
2023-02-20T12:08:43.192Z,10.68
2023-02-20T12:11:17.759Z,10.62
2023-02-20T12:13:52.821Z,10.59
2023-02-20T12:16:40.144Z,10.52
2023-02-20T12:19:17.121Z,10.49
2023-02-20T12:21:59.767Z,10.40
2023-02-20T12:24:58.128Z,10.14
2023-02-20T12:28:00.904Z,9.96
2023-02-20T12:30:56.535Z,9.92
2023-02-20T12:33:51.688Z,9.90
2023-02-20T12:36:33.305Z,9.80
2023-02-20T12:39:09.366Z,9.76
2023-02-20T12:41:52.555Z,9.68
2023-02-20T12:44:42.519Z,9.64
2023-02-20T12:47:27.399Z,9.68
2023-02-20T12:51:49.422Z,9.67
2023-02-20T12:54:34.385Z,9.58
2023-02-20T12:57:16.566Z,9.65
2023-02-20T12:59:59.074Z,9.73
2023-02-20T13:02:41.803Z,9.77
2023-02-20T13:05:18.535Z,9.75
2023-02-20T13:07:55.600Z,9.75
2023-02-20T13:10:28.795Z,9.80
2023-02-20T13:12:58.549Z,9.86
2023-02-20T13:15:40.061Z,9.86
2023-02-20T13:18:20.979Z,9.94
2023-02-20T13:20:55.751Z,9.90
2023-02-20T13:23:35.567Z,9.82
2023-02-20T13:26:29.708Z,9.76
2023-02-20T13:29:16.811Z,9.61
2023-02-20T13:31:52.354Z,9.47
2023-02-20T13:34:36.449Z,9.37
2023-02-20T13:37:07.579Z,9.27
2023-02-20T13:39:44.951Z,9.11
2023-02-20T13:42:37.713Z,9.07
2023-02-20T13:45:43.944Z,9.02
2023-02-20T13:48:42.326Z,8.99
2023-02-20T13:51:37.831Z,8.91
2023-02-20T13:54:28.211Z,8.84
2023-02-20T13:57:10.912Z,8.77
2023-02-20T13:59:40.466Z,8.75
2023-02-20T14:02:24.358Z,8.73
2023-02-20T14:05:00.603Z,8.72
2023-02-20T14:07:39.732Z,8.66
2023-02-20T14:10:17.636Z,8.60
2023-02-20T14:12:48.427Z,8.56
2023-02-20T14:15:18.057Z,8.51
2023-02-20T14:17:48.944Z,8.47
2023-02-20T14:20:25.016Z,8.43
2023-02-20T14:23:20.605Z,8.35
2023-02-20T14:26:01.374Z,8.36
2023-02-20T14:28:32.746Z,8.34
2023-02-20T14:31:25.359Z,8.28
2023-02-20T14:34:00.142Z,8.26
2023-02-20T14:37:03.999Z,8.21
2023-02-20T14:39:53.566Z,8.21
2023-02-20T14:42:25.963Z,8.18
2023-02-20T14:45:03.019Z,8.13
2023-02-20T14:47:33.158Z,8.08
2023-02-20T14:50:19.190Z,8.03
2023-02-20T14:52:48.894Z,8.01
2023-02-20T14:55:21.154Z,7.97
2023-02-20T14:57:51.947Z,7.95
2023-02-20T15:00:40.058Z,7.86
2023-02-20T15:03:29.376Z,7.79
2023-02-20T15:06:06.958Z,7.73
2023-02-20T15:08:39.026Z,7.67
2023-02-20T15:11:11.475Z,7.59
2023-02-20T15:13:44.866Z,7.60
2023-02-20T15:16:22.753Z,7.53
2023-02-20T15:18:52.840Z,7.47
2023-02-20T15:21:43.652Z,7.47
2023-02-20T15:24:39.934Z,7.42
2023-02-20T15:27:15.946Z,7.38
2023-02-20T15:29:47.214Z,7.34
2023-02-20T15:32:27.227Z,7.35
2023-02-20T15:34:58.691Z,7.34
2023-02-20T15:37:38.453Z,7.31
2023-02-20T15:40:23.956Z,7.30
2023-02-20T15:42:57.338Z,7.29
2023-02-20T15:45:29.388Z,7.25
2023-02-20T15:47:59.612Z,7.23
2023-02-20T15:51:42.500Z,7.13
2023-02-20T15:54:19.046Z,7.11
2023-02-20T15:56:48.792Z,7.11
2023-02-20T15:59:19.037Z,7.09
2023-02-20T16:01:49.268Z,7.09
2023-02-20T16:04:19.915Z,7.07
2023-02-20T16:06:50.860Z,7.06
2023-02-20T16:09:21.817Z,7.02
2023-02-20T16:11:51.270Z,7.01
2023-02-20T16:14:20.717Z,6.97
2023-02-20T16:16:55.480Z,6.96
2023-02-20T16:19:41.763Z,6.98
2023-02-20T16:22:13.872Z,6.95
2023-02-20T16:24:44.808Z,6.88
2023-02-20T16:27:24.363Z,6.81
2023-02-20T16:29:55.519Z,6.75
2023-02-20T16:32:27.221Z,6.75
2023-02-20T16:34:59.113Z,6.72
2023-02-20T16:37:30.195Z,6.71
2023-02-20T16:39:59.717Z,6.68
2023-02-20T16:42:34.019Z,6.61
2023-02-20T16:45:07.392Z,6.59
2023-02-20T16:47:36.881Z,6.58
2023-02-20T16:50:08.394Z,6.61
2023-02-20T16:52:41.802Z,6.58
2023-02-20T16:55:22.908Z,6.60
2023-02-20T16:57:52.708Z,6.55
2023-02-20T17:00:25.407Z,6.53
2023-02-20T17:02:55.555Z,6.57
2023-02-20T17:05:28.830Z,6.52
2023-02-20T17:08:01.012Z,6.41
2023-02-20T17:10:31.970Z,6.31
2023-02-20T17:13:01.571Z,6.25
2023-02-20T17:15:31.018Z,6.27
2023-02-20T17:18:00.473Z,6.26
2023-02-20T17:20:30.031Z,6.24
2023-02-20T17:23:05.032Z,6.22
2023-02-20T17:25:36.104Z,6.19
2023-02-20T17:28:07.512Z,6.10
2023-02-20T17:30:36.852Z,6.00
2023-02-20T17:33:06.402Z,6.00
2023-02-20T17:35:35.692Z,6.09
2023-02-20T17:38:06.563Z,6.08
2023-02-20T17:40:38.000Z,6.13
2023-02-20T17:43:07.465Z,6.10
2023-02-20T17:45:36.790Z,5.95
2023-02-20T17:48:08.338Z,5.84
2023-02-20T17:50:38.021Z,5.73
2023-02-20T17:53:10.770Z,5.67
2023-02-20T17:55:39.889Z,5.61
2023-02-20T17:58:09.254Z,5.56
2023-02-20T18:00:38.805Z,5.58
2023-02-20T18:03:08.692Z,5.53
2023-02-20T18:05:38.214Z,5.41
2023-02-20T18:08:09.170Z,5.37
2023-02-20T18:10:38.543Z,5.26
2023-02-20T18:13:08.270Z,5.13
2023-02-20T18:15:40.852Z,5.07
2023-02-20T18:18:11.814Z,5.15
2023-02-20T18:20:42.356Z,5.34
2023-02-20T18:23:13.671Z,5.35
2023-02-20T18:25:43.028Z,5.34
2023-02-20T18:28:12.692Z,5.37
2023-02-20T18:30:42.871Z,5.37
2023-02-20T18:33:12.427Z,5.28
2023-02-20T18:35:41.790Z,5.13
2023-02-20T18:38:12.678Z,5.05
2023-02-20T18:40:46.607Z,4.99
2023-02-20T18:43:16.391Z,4.94
2023-02-20T18:45:45.848Z,4.87
2023-02-20T18:51:40.083Z,4.76
2023-02-20T18:54:12.682Z,4.71
2023-02-20T18:56:42.086Z,4.62
2023-02-20T18:59:11.441Z,4.54
2023-02-20T19:01:43.627Z,4.48
2023-02-20T19:04:14.851Z,4.41
2023-02-20T19:06:47.296Z,4.38
2023-02-20T19:09:20.284Z,4.26
2023-02-20T19:11:52.246Z,4.16
2023-02-20T19:14:22.854Z,4.09
2023-02-20T19:16:52.893Z,3.91
2023-02-20T19:19:24.806Z,3.89
2023-02-20T19:21:56.841Z,3.83
2023-02-20T19:24:26.752Z,3.78
2023-02-20T19:26:56.326Z,3.80
2023-02-20T19:29:25.771Z,3.75
2023-02-20T19:31:55.502Z,3.68
2023-02-20T19:34:25.345Z,3.71
2023-02-20T19:36:56.316Z,3.83
2023-02-20T19:39:25.789Z,3.87
2023-02-20T19:41:55.092Z,3.85
2023-02-20T19:44:24.974Z,3.85
2023-02-20T19:46:54.853Z,3.84
2023-02-20T19:49:24.993Z,3.84
2023-02-20T19:51:57.116Z,3.97
2023-02-20T19:54:30.246Z,3.89
2023-02-20T19:57:04.524Z,3.91
2023-02-20T19:59:34.227Z,3.92
2023-02-20T20:02:04.346Z,3.88
2023-02-20T20:04:35.250Z,3.78
2023-02-20T20:07:06.361Z,3.79
2023-02-20T20:09:37.614Z,3.86
2023-02-20T20:12:30.362Z,3.84
2023-02-20T20:14:59.818Z,3.73
2023-02-20T20:17:29.193Z,3.72
2023-02-20T20:20:00.233Z,3.69
2023-02-20T20:22:32.355Z,3.70
2023-02-20T20:25:02.028Z,3.70
2023-02-20T20:27:32.665Z,3.79
2023-02-20T20:30:02.163Z,3.81
2023-02-20T20:32:31.646Z,3.89
2023-02-20T20:35:01.208Z,3.86
2023-02-20T20:37:32.066Z,3.71
2023-02-20T20:40:01.707Z,3.57
2023-02-20T20:42:31.348Z,3.55
2023-02-20T20:45:01.919Z,3.55
2023-02-20T20:47:33.014Z,3.55
2023-02-20T20:50:02.556Z,3.45
2023-02-20T20:52:35.069Z,3.37
2023-02-20T20:55:04.993Z,3.38
2023-02-20T20:57:36.819Z,3.42
2023-02-20T21:00:09.425Z,3.48
2023-02-20T21:02:39.562Z,3.69
2023-02-20T21:05:11.355Z,3.89
2023-02-20T21:07:42.678Z,4.04
2023-02-20T21:10:13.221Z,4.14
2023-02-20T21:12:43.130Z,4.15
2023-02-20T21:15:14.533Z,4.17
2023-02-20T21:17:45.785Z,4.02
2023-02-20T21:20:19.865Z,3.94
2023-02-20T21:22:52.028Z,3.96
2023-02-20T21:25:25.309Z,3.78
2023-02-20T21:27:55.238Z,3.53
2023-02-20T21:30:26.980Z,3.43
2023-02-20T21:32:57.231Z,3.34
2023-02-20T21:35:27.125Z,3.39
2023-02-20T21:37:58.109Z,3.32
2023-02-20T21:40:27.590Z,3.29
2023-02-20T21:43:14.410Z,3.28
2023-02-20T21:45:44.685Z,3.33
2023-02-20T21:51:37.308Z,3.45
2023-02-20T21:54:06.968Z,3.42
2023-02-20T21:56:36.286Z,3.28
2023-02-20T21:59:06.289Z,3.18
2023-02-20T22:01:37.949Z,3.20
2023-02-20T22:04:09.769Z,3.24
2023-02-20T22:06:40.223Z,3.22
2023-02-20T22:09:28.365Z,3.10
2023-02-20T22:12:15.077Z,2.94
2023-02-20T22:15:01.786Z,2.84
2023-02-20T22:17:48.330Z,2.71
2023-02-20T22:20:34.935Z,2.62
2023-02-20T22:23:23.258Z,2.61
2023-02-20T22:26:09.950Z,2.63
2023-02-20T22:28:56.623Z,2.62
2023-02-20T22:31:43.493Z,2.47
2023-02-20T22:34:30.488Z,2.40
2023-02-20T22:37:16.909Z,2.21
2023-02-20T22:40:06.120Z,2.05
2023-02-20T22:42:52.656Z,1.79
2023-02-20T22:45:39.365Z,1.68
2023-02-20T22:48:25.854Z,1.62
2023-02-20T22:51:13.303Z,1.53
2023-02-20T22:54:00.335Z,1.47
2023-02-20T22:56:48.577Z,1.49
2023-02-20T22:59:35.295Z,1.50
2023-02-20T23:02:21.918Z,1.47
2023-02-20T23:05:08.475Z,1.37
2023-02-20T23:07:55.299Z,1.42
2023-02-20T23:10:42.270Z,1.44
2023-02-20T23:13:30.276Z,1.50
2023-02-20T23:16:16.953Z,1.62
2023-02-20T23:19:04.136Z,1.69
2023-02-20T23:21:51.077Z,1.74
2023-02-20T23:24:37.757Z,1.82
2023-02-20T23:27:24.812Z,1.78
2023-02-20T23:30:13.104Z,1.73
2023-02-20T23:33:00.858Z,1.66
2023-02-20T23:35:47.936Z,1.55
2023-02-20T23:38:34.449Z,1.44
2023-02-20T23:41:21.010Z,1.36
2023-02-20T23:44:07.734Z,1.31
2023-02-20T23:46:56.098Z,1.28
2023-02-20T23:49:42.444Z,1.23
2023-02-20T23:52:29.570Z,1.16
2023-02-20T23:55:16.286Z,1.04
2023-02-20T23:58:02.744Z,0.99
